Ely, NV

6:29 PM PDT on July 22, 2014 (GMT -0700)
Ely (KELY) Elev 6260 ft | 39.30 °N, 114.85 °W | Change Station
Active Advisory: Fire Weather Warning

Current weather conditions updated 36 minutes ago

Clear
Clear
90 °F
Feels Like 90 °F
N
20
Wind Variable Wind from SW
Gusts 29 mph

Tomorrow is forecast to be nearly the same temperature as today.

Today
High -- | Low -- °F
--% Chance of Precip.
Yesterday
High -- | Low -- °F
Precip. -- in
5:30 AM 8:00 PM
Waning Crescent, 14% visible
Pressure 29.92 in
Visibility 10.0 miles
Clouds Clear
Dew Point 11 °F
Humidity 5%
Rainfall 0.00 in
Snow Depth 0 in
UV 2 out of 12
Pollen 6.10 out of 12
Air Quality Not available.
Flu Activity Not available.
METAR KELY 230053Z AUTO 22017G25KT 10SM CLR 32/M12 A3023 RMK AO2 PK WND 15026/0020 SLP132 T03221117

More Conditions Fewer Conditions

Pressure 29.92 in
Visibility 10.0 miles
Clouds Clear
Dew Point 11 °F
Humidity 5%
Rainfall 0.00 in
Snow Depth 0 in
UV 2 out of 12
Pollen 6.10 out of 12
Air Quality Not available.
Flu Activity Not available.
METAR KELY 230053Z AUTO 22017G25KT 10SM CLR 32/M12 A3023 RMK AO2 PK WND 15026/0020 SLP132 T03221117

More Conditions Fewer Conditions

10-Day Weather Forecast

Almanac

Astronomy

Jul. 22, 2014 Rise Set
Actual Time 5:30 AM PDT 8:00 PM PDT
Civil Twilight 4:59 AM PDT 8:31 PM PDT
Nautical Twilight 4:21 AM PDT 9:09 PM PDT
Astronomical Twilight 3:39 AM PDT 9:51 PM PDT
Moon 2:06 AM PDT (7/22) 4:42 PM PDT (7/22)
Length of Visible Light 15h 31m
Length of Day
14h 29m
Tomorrow will be 1m 37s shorter.
Waning Crescent, 14% of the Moon is Illuminated
Today
Waning Crescent
Jul 26
New
Aug 3
First Quarter
Aug 10
Full
Aug 17
Last Quarter

Today's Extremes

State Highs State Lows

Community

WunderPhotos

Upload Photos

1,736,423 photos uploaded!

Nearby

Snow Depth

Station Depth Elevation
Ward Mountain 0 in 9200 ft
Taylor Canyon 1 in 6200 ft
Jacks Peak 4 in 8420 ft
Jack Creek Upper 0 in 7250 ft
Seventysix Creek 4 in 7100 ft

Earthquake Activity

City Distance Mag. Time & Date
No recent earthquake activity has been reported nearby.
Minimum magnitude displayed is 2.5.

Coastal Water Temperatures

Place Temperature
No Stations Reporting

Nearby Weather Stations

Station Location Temp. Heat Index Dew Point Humidity Wind Precip. Elev Updated Type
MesoWest Ely , Ely, NV 90 °F 86 °F 21 °F 8% SSE  at  13 mph 0.00 in / hr 6250 ft 5:00 PM PDT MADIS
Cross Timbers, Ely, NV 89.5 °F 86 °F 26 °F 5% South  at  5.6 mph 0.00 in / hr 6234 ft 6:27 PM PDT Normal
APRSWXNET Ely NV, Duckwater, NV 88 °F 84 °F 13 °F 6% SSE  at  5 mph 0.00 in / hr 6594 ft 6:04 PM PDT MADIS
MesoWest Conners Summit , Ely, NV 84 °F 81 °F 13 °F 7% SE  at  12 mph 0.00 in / hr 7228 ft 5:41 PM PDT MADIS
MesoWest Murray Summit , Ruth, NV 83 °F 80 °F 9 °F 6% South  at  14 mph 0.00 in / hr 7290 ft 5:41 PM PDT MADIS

Show More Stations Show Fewer Stations